Time,TemperatureF,DewpointF,PressureIn,WindDirection,WindDirectionDegrees,WindSpeedMPH,WindSpeedGustMPH,Humidity,HourlyPrecipIn,Conditions,Clouds,dailyrainin,SolarRadiationWatts/m^2,SoftwareType,DateUTC
2013-12-08 00:02:00,1.0,-4.0,-100.00,NW,309,2.0,10.0,79,0.00,,,0.00,0.000000,,2013-12-08 08:02:00,
2013-12-08 00:11:00,1.0,-4.0,-100.00,NW,309,2.0,10.0,79,0.00,,,0.00,0.000000,,2013-12-08 08:11:00,
2013-12-08 00:43:00,1.0,-4.0,-100.00,West,273,2.0,5.0,79,0.00,,,0.00,0.000000,,2013-12-08 08:43:00,
2013-12-08 00:52:00,1.0,-4.0,-100.00,West,273,2.0,5.0,79,0.00,,,0.00,0.000000,,2013-12-08 08:52:00,
2013-12-08 01:02:00,1.0,-4.0,-100.00,West,273,2.0,5.0,79,0.00,,,0.00,0.000000,,2013-12-08 09:02:00,
2013-12-08 01:11:00,1.0,-4.0,-100.00,West,273,2.0,5.0,79,0.00,,,0.00,0.000000,,2013-12-08 09:11:00,
2013-12-08 01:12:00,0.0,-5.0,-100.00,WSW,248,3.0,10.0,78,0.00,,,0.00,0.000000,,2013-12-08 09:12:00,
2013-12-08 01:43:00,0.0,-5.0,-100.00,WSW,248,3.0,10.0,78,0.00,,,0.00,0.000000,,2013-12-08 09:43:00,
2013-12-08 01:53:00,0.0,-5.0,-100.00,WSW,248,3.0,10.0,78,0.00,,,0.00,0.000000,,2013-12-08 09:53:00,
2013-12-08 02:03:00,0.0,-5.0,-100.00,WSW,248,3.0,10.0,78,0.00,,,0.00,0.000000,,2013-12-08 10:03:00,
2013-12-08 02:12:00,-1.0,-6.0,-100.00,SSW,207,5.0,10.0,78,0.00,,,0.00,0.000000,,2013-12-08 10:12:00,
2013-12-08 02:43:00,-1.0,-6.0,-100.00,SSW,207,5.0,10.0,78,0.00,,,0.00,0.000000,,2013-12-08 10:43:00,
2013-12-08 02:53:00,-1.0,-6.0,-100.00,SSW,207,5.0,10.0,78,0.00,,,0.00,0.000000,,2013-12-08 10:53:00,
2013-12-08 03:02:00,-1.0,-6.0,-100.00,SSW,207,5.0,10.0,78,0.00,,,0.00,0.000000,,2013-12-08 11:02:00,
2013-12-08 03:12:00,-2.0,-7.0,-100.00,SW,226,4.0,9.0,77,0.00,,,0.00,0.000000,,2013-12-08 11:12:00,
2013-12-08 03:43:00,-2.0,-7.0,-100.00,SW,226,4.0,9.0,77,0.00,,,0.00,0.000000,,2013-12-08 11:43:00,
2013-12-08 03:52:00,-2.0,-7.0,-100.00,SW,226,4.0,9.0,77,0.00,,,0.00,0.000000,,2013-12-08 11:52:00,
2013-12-08 04:02:00,-2.0,-7.0,-100.00,SW,226,4.0,9.0,77,0.00,,,0.00,0.000000,,2013-12-08 12:02:00,
2013-12-08 04:42:00,-6.0,-12.0,-100.00,East,97,2.0,5.0,74,0.00,,,0.00,0.000000,,2013-12-08 12:42:00,
2013-12-08 04:52:00,-6.0,-12.0,-100.00,East,97,2.0,5.0,74,0.00,,,0.00,0.000000,,2013-12-08 12:52:00,
2013-12-08 05:01:00,-6.0,-12.0,-100.00,East,97,2.0,5.0,74,0.00,,,0.00,0.000000,,2013-12-08 13:01:00,
2013-12-08 05:11:00,-6.0,-12.0,-100.00,East,97,2.0,5.0,74,0.00,,,0.00,0.000000,,2013-12-08 13:11:00,
2013-12-08 05:12:00,-7.0,-13.0,-100.00,ENE,76,2.0,3.0,73,0.00,,,0.00,0.000000,,2013-12-08 13:12:00,
2013-12-08 05:42:00,-7.0,-13.0,-100.00,ENE,76,2.0,3.0,73,0.00,,,0.00,0.000000,,2013-12-08 13:42:00,
2013-12-08 05:52:00,-7.0,-13.0,-100.00,ENE,76,2.0,3.0,73,0.00,,,0.00,0.000000,,2013-12-08 13:52:00,
2013-12-08 06:02:00,-7.0,-13.0,-100.00,ENE,76,2.0,3.0,73,0.00,,,0.00,0.000000,,2013-12-08 14:02:00,
2013-12-08 06:42:00,-8.0,-14.0,-100.00,ENE,74,2.0,4.0,73,0.00,,,0.00,0.000000,,2013-12-08 14:42:00,
2013-12-08 06:52:00,-8.0,-14.0,-100.00,ENE,74,2.0,4.0,73,0.00,,,0.00,0.000000,,2013-12-08 14:52:00,
2013-12-08 07:02:00,-8.0,-14.0,-100.00,ENE,74,2.0,4.0,73,0.00,,,0.00,0.000000,,2013-12-08 15:02:00,
2013-12-08 07:11:00,-8.0,-14.0,-100.00,ENE,74,2.0,4.0,73,0.00,,,0.00,0.000000,,2013-12-08 15:11:00,
2013-12-08 07:12:00,-9.0,-16.0,-100.00,ENE,70,3.0,5.0,72,0.00,,,0.00,2.000000,,2013-12-08 15:12:00,
2013-12-08 07:43:00,-9.0,-16.0,-100.00,ENE,70,3.0,5.0,72,0.00,,,0.00,2.000000,,2013-12-08 15:43:00,
2013-12-08 07:54:00,-9.0,-16.0,-100.00,ENE,70,3.0,5.0,72,0.00,,,0.00,2.000000,,2013-12-08 15:54:00,
2013-12-08 08:04:00,-9.0,-16.0,-100.00,ENE,70,3.0,5.0,72,0.00,,,0.00,2.000000,,2013-12-08 16:04:00,
2013-12-08 08:12:00,-9.0,-16.0,-100.00,ENE,67,3.0,5.0,71,0.00,,,0.00,11.000000,,2013-12-08 16:12:00,
2013-12-08 08:43:00,-9.0,-16.0,-100.00,ENE,67,3.0,5.0,71,0.00,,,0.00,11.000000,,2013-12-08 16:43:00,
2013-12-08 08:53:00,-9.0,-16.0,-100.00,ENE,67,3.0,5.0,71,0.00,,,0.00,11.000000,,2013-12-08 16:53:00,
2013-12-08 09:02:00,-9.0,-16.0,-100.00,ENE,67,3.0,5.0,71,0.00,,,0.00,11.000000,,2013-12-08 17:02:00,
2013-12-08 09:12:00,-5.0,-12.0,-100.00,ENE,72,3.0,4.0,71,0.00,,,-99.99,28.000000,,2013-12-08 17:12:00,
2013-12-08 09:43:00,-5.0,-12.0,-100.00,ENE,72,3.0,4.0,71,0.00,,,-99.99,28.000000,,2013-12-08 17:43:00,
2013-12-08 09:52:00,-5.0,-12.0,-100.00,ENE,72,3.0,4.0,71,0.00,,,-99.99,28.000000,,2013-12-08 17:52:00,
2013-12-08 10:02:00,-5.0,-12.0,-100.00,ENE,72,3.0,4.0,71,0.00,,,-99.99,28.000000,,2013-12-08 18:02:00,
2013-12-08 10:12:00,7.0,-2.0,-100.00,ENE,78,3.0,4.0,66,0.00,,,-99.99,259.000000,,2013-12-08 18:12:00,
2013-12-08 10:42:00,7.0,-2.0,-100.00,ENE,78,3.0,4.0,66,0.00,,,-99.99,259.000000,,2013-12-08 18:42:00,
2013-12-08 10:52:00,7.0,-2.0,-100.00,ENE,78,3.0,4.0,66,0.00,,,-99.99,259.000000,,2013-12-08 18:52:00,
2013-12-08 11:02:00,7.0,-2.0,-100.00,ENE,78,3.0,4.0,66,0.00,,,-99.99,259.000000,,2013-12-08 19:02:00,
2013-12-08 11:42:00,16.0,4.0,-100.00,South,171,1.0,5.0,58,0.00,,,0.00,345.000000,,2013-12-08 19:42:00,
2013-12-08 11:52:00,16.0,4.0,-100.00,South,171,1.0,5.0,58,0.00,,,0.00,345.000000,,2013-12-08 19:52:00,
2013-12-08 12:02:00,16.0,4.0,-100.00,South,171,1.0,5.0,58,0.00,,,0.00,345.000000,,2013-12-08 20:02:00,
2013-12-08 12:42:00,12.0,-2.0,-100.00,SW,236,4.0,8.0,53,0.00,,,0.00,396.000000,,2013-12-08 20:42:00,
2013-12-08 12:52:00,12.0,-2.0,-100.00,SW,236,4.0,8.0,53,0.00,,,0.00,396.000000,,2013-12-08 20:52:00,
2013-12-08 13:02:00,12.0,-2.0,-100.00,SW,236,4.0,8.0,53,0.00,,,0.00,396.000000,,2013-12-08 21:02:00,
2013-12-08 13:11:00,12.0,-2.0,-100.00,SW,236,4.0,8.0,53,0.00,,,0.00,396.000000,,2013-12-08 21:11:00,
2013-12-08 13:12:00,12.0,-4.0,-100.00,SW,236,4.0,9.0,48,0.03,,,0.03,188.000000,,2013-12-08 21:12:00,
2013-12-08 13:43:00,12.0,-4.0,-100.00,SW,236,4.0,9.0,48,0.03,,,0.03,188.000000,,2013-12-08 21:43:00,
2013-12-08 13:53:00,12.0,-4.0,-100.00,SW,236,4.0,9.0,48,0.03,,,0.03,188.000000,,2013-12-08 21:53:00,
2013-12-08 14:03:00,12.0,-4.0,-100.00,SW,236,4.0,9.0,48,0.03,,,0.03,188.000000,,2013-12-08 22:03:00,
2013-12-08 14:12:00,10.0,-6.0,-100.00,WSW,240,5.0,10.0,48,0.01,,,0.04,478.000000,,2013-12-08 22:12:00,
2013-12-08 14:43:00,10.0,-6.0,-100.00,WSW,240,5.0,10.0,48,0.01,,,0.04,478.000000,,2013-12-08 22:43:00,
2013-12-08 14:53:00,10.0,-6.0,-100.00,WSW,240,5.0,10.0,48,0.01,,,0.04,478.000000,,2013-12-08 22:53:00,
2013-12-08 15:03:00,10.0,-6.0,-100.00,WSW,240,5.0,10.0,48,0.01,,,0.04,478.000000,,2013-12-08 23:03:00,
2013-12-08 15:42:00,6.0,-7.0,-100.00,SW,230,4.0,9.0,55,0.00,,,0.04,314.000000,,2013-12-08 23:42:00,
2013-12-08 15:53:00,6.0,-7.0,-100.00,SW,230,4.0,9.0,55,0.00,,,0.04,314.000000,,2013-12-08 23:53:00,
2013-12-08 16:02:00,6.0,-7.0,-100.00,SW,230,4.0,9.0,55,0.00,,,0.04,314.000000,,2013-12-09 00:02:00,
2013-12-08 16:11:00,6.0,-7.0,-100.00,SW,230,4.0,9.0,55,0.00,,,0.04,314.000000,,2013-12-09 00:11:00,
2013-12-08 16:42:00,1.0,-6.0,-100.00,SW,231,5.0,10.0,73,0.00,,,0.04,59.000000,,2013-12-09 00:42:00,
2013-12-08 16:52:00,1.0,-6.0,-100.00,SW,231,5.0,10.0,73,0.00,,,0.04,59.000000,,2013-12-09 00:52:00,
2013-12-08 17:02:00,1.0,-6.0,-100.00,SW,231,5.0,10.0,73,0.00,,,0.04,59.000000,,2013-12-09 01:02:00,
2013-12-08 17:11:00,1.0,-6.0,-100.00,SW,231,5.0,10.0,73,0.00,,,0.04,59.000000,,2013-12-09 01:11:00,
2013-12-08 17:42:00,0.0,-5.0,-100.00,SW,222,4.0,10.0,80,0.00,,,0.04,3.000000,,2013-12-09 01:42:00,
2013-12-08 17:52:00,0.0,-5.0,-100.00,SW,222,4.0,10.0,80,0.00,,,0.04,3.000000,,2013-12-09 01:52:00,
2013-12-08 18:02:00,0.0,-5.0,-100.00,SW,222,4.0,10.0,80,0.00,,,0.04,3.000000,,2013-12-09 02:02:00,
2013-12-08 18:11:00,0.0,-5.0,-100.00,SW,222,4.0,10.0,80,0.00,,,0.04,3.000000,,2013-12-09 02:11:00,
2013-12-08 18:42:00,0.0,-6.0,-100.00,SW,229,5.0,9.0,75,0.00,,,0.04,0.000000,,2013-12-09 02:42:00,
2013-12-08 18:53:00,0.0,-6.0,-100.00,SW,229,5.0,9.0,75,0.00,,,0.04,0.000000,,2013-12-09 02:53:00,
2013-12-08 19:02:00,0.0,-6.0,-100.00,SW,229,5.0,9.0,75,0.00,,,0.04,0.000000,,2013-12-09 03:02:00,
2013-12-08 19:11:00,0.0,-6.0,-100.00,SW,229,5.0,9.0,75,0.00,,,0.04,0.000000,,2013-12-09 03:11:00,
2013-12-08 19:12:00,-2.0,-8.0,-100.00,South,185,5.0,10.0,76,0.00,,,0.04,0.000000,,2013-12-09 03:12:00,
2013-12-08 19:43:00,-2.0,-8.0,-100.00,South,185,5.0,10.0,76,0.00,,,0.04,0.000000,,2013-12-09 03:43:00,
2013-12-08 19:53:00,-2.0,-8.0,-100.00,South,185,5.0,10.0,76,0.00,,,0.04,0.000000,,2013-12-09 03:53:00,
2013-12-08 20:03:00,-2.0,-8.0,-100.00,South,185,5.0,10.0,76,0.00,,,0.04,0.000000,,2013-12-09 04:03:00,
2013-12-08 20:12:00,0.0,-9.0,-100.00,SW,230,3.0,7.0,64,0.00,,,0.04,0.000000,,2013-12-09 04:12:00,
2013-12-08 20:43:00,0.0,-9.0,-100.00,SW,230,3.0,7.0,64,0.00,,,0.04,0.000000,,2013-12-09 04:43:00,
2013-12-08 20:53:00,0.0,-9.0,-100.00,SW,230,3.0,7.0,64,0.00,,,0.04,0.000000,,2013-12-09 04:53:00,
2013-12-08 21:02:00,0.0,-9.0,-100.00,SW,230,3.0,7.0,64,0.00,,,0.04,0.000000,,2013-12-09 05:02:00,
2013-12-08 21:12:00,-2.0,-9.0,-100.00,ENE,59,2.0,5.0,72,0.00,,,0.04,0.000000,,2013-12-09 05:12:00,
2013-12-08 21:42:00,-2.0,-9.0,-100.00,ENE,59,2.0,5.0,72,0.00,,,0.04,0.000000,,2013-12-09 05:42:00,
2013-12-08 21:53:00,-2.0,-9.0,-100.00,ENE,59,2.0,5.0,72,0.00,,,0.04,0.000000,,2013-12-09 05:53:00,
2013-12-08 22:02:00,-2.0,-9.0,-100.00,ENE,59,2.0,5.0,72,0.00,,,0.04,0.000000,,2013-12-09 06:02:00,
2013-12-08 22:42:00,-5.0,-14.0,-100.00,ENE,77,3.0,4.0,65,0.00,,,0.04,0.000000,,2013-12-09 06:42:00,
2013-12-08 22:52:00,-5.0,-14.0,-100.00,ENE,77,3.0,4.0,65,0.00,,,0.04,0.000000,,2013-12-09 06:52:00,
2013-12-08 23:02:00,-5.0,-14.0,-100.00,ENE,77,3.0,4.0,65,0.00,,,0.04,0.000000,,2013-12-09 07:02:00,
2013-12-08 23:11:00,-5.0,-14.0,-100.00,ENE,77,3.0,4.0,65,0.00,,,0.04,0.000000,,2013-12-09 07:11:00,
2013-12-08 23:42:00,-8.0,-16.0,-100.00,East,84,3.0,5.0,66,0.00,,,0.04,0.000000,,2013-12-09 07:42:00,
2013-12-08 23:52:00,-8.0,-16.0,-100.00,East,84,3.0,5.0,66,0.00,,,0.04,0.000000,,2013-12-09 07:52:00,